Airfield :
LOGIN :

Register | Disclaimer

   EN    FR    IT 

 










Legend :    VFR   Marginal VFR   IFR   Intensive IFR   Very Intensive IFR
Visi :
Ceiling :
>= 8 km
>= 3000ft
5 to 8 km
1000 to 3000 ft
1500m to 5 km
500 to 1000 ft
800 to 1500m
200 to 500 ft
< 800m
< 200 ft
Symbols :   Thunderstorms  Fog  Heavy snow  Heavy precipitations  Wind > 20 kt
SIGMETs :     Misc.  Thunderstorms  Icing  Turbulence  Mountain Waves  Volcanic Ashes






- Airport Elevation : 764 ft
- IATA code : YEI


LTBR - Yenisehir AB

CURRENT METAR :
  • 200620Z VRB02KT 7000 -SHRA BKN027 BKN080 17/15 Q1016 NOSIG RMK RWY07 12002KT

EXPIRED METARs :
  • 200550Z 00000KT 9999 BKN027 BKN080 18/13 Q1016 NOSIG
  • 200520Z 00000KT 9999 BKN030 BKN090 17/14 Q1016 NOSIG RMK RWY07 05003KT 010V090
  • 200450Z 00000KT 9999 BKN030 BKN090 17/14 Q1016 NOSIG RMK RWY07 02003KT 340V080
  • 200420Z 00000KT 9999 BKN030 BKN090 17/14 Q1016 NOSIG RMK RWY07 01002KT
  • 200350Z 00000KT 9999 BKN030 BKN090 17/13 Q1016 NOSIG RMK RWY07 VRB02KT

TAF TAF LTBR
Valid from the 20 at 06:00 until the 21 at 06:00 UTC


200440Z 2006/2106 VRB02KT 9999 BKN030 BKN080
TEMPO 2007/2011 -SHRA
BECMG 2009/2011 36012KT SCT035
PROB30
TEMPO 2012/2016 -SHRA BKN030
BECMG 2015/2018 VRB02KT



MET'MAP, your aeronautical weather chart ! - Copyright ORBIFLY December 2007 - Disclaimer

ORBIFLY MET'MAP TEAM :

Programming & Development : Alexandra Zaïnal
Concept & original design : Baudouin d'Aumeries
Assistance for programming : Marc-Olivier Méhu
Technical & hardware support : Manuel Goepfert

Contact : metmap@orbifly.com




SOURCES & CREDITS :

   NOAA